createdAt,value
2022-09-05T00:00:02.747Z,18.20
2022-09-05T00:02:39.353Z,18.10
2022-09-05T00:05:23.523Z,18.10
2022-09-05T00:08:20.827Z,18.00
2022-09-05T00:11:41.933Z,17.80
2022-09-05T00:14:09.068Z,17.70
2022-09-05T00:16:53.386Z,17.70
2022-09-05T00:24:25.115Z,17.70
2022-09-05T00:24:28.182Z,17.70
2022-09-05T00:25:53.736Z,17.60
2022-09-05T00:28:32.574Z,17.50
2022-09-05T00:31:53.448Z,17.30
2022-09-05T00:34:23.324Z,17.30
2022-09-05T00:36:55.572Z,17.30
2022-09-05T00:39:31.965Z,17.30
2022-09-05T00:42:09.042Z,17.30
2022-09-05T00:44:47.220Z,17.30
2022-09-05T00:47:40.110Z,17.20
2022-09-05T00:50:40.997Z,17.20
2022-09-05T00:53:20.354Z,17.20
2022-09-05T00:56:03.159Z,17.10
2022-09-05T00:59:07.545Z,17.10
2022-09-05T01:01:53.570Z,17.10
2022-09-05T01:04:54.716Z,17.10
2022-09-05T01:07:30.059Z,17.10
2022-09-05T01:10:30.851Z,17.10
2022-09-05T01:13:14.745Z,17.10
2022-09-05T01:16:10.628Z,17.10
2022-09-05T01:18:49.698Z,17.10
2022-09-05T01:21:37.245Z,17.10
2022-09-05T01:24:51.859Z,17.00
2022-09-05T01:28:37.041Z,17.00
2022-09-05T01:31:12.550Z,17.10
2022-09-05T01:33:43.212Z,17.10
2022-09-05T01:36:43.241Z,17.10
2022-09-05T01:40:12.457Z,17.00
2022-09-05T01:42:19.578Z,17.00
2022-09-05T01:45:06.568Z,16.90
2022-09-05T01:47:51.952Z,16.90
2022-09-05T01:50:48.382Z,16.90
2022-09-05T01:53:25.648Z,16.80
2022-09-05T01:56:25.213Z,16.80
2022-09-05T01:59:01.242Z,16.90
2022-09-05T02:01:55.700Z,16.90
2022-09-05T02:05:00.333Z,16.90
2022-09-05T02:07:57.234Z,16.80
2022-09-05T02:11:01.829Z,16.80
2022-09-05T02:13:48.816Z,16.70
2022-09-05T02:16:36.613Z,16.80
2022-09-05T02:19:09.304Z,16.70
2022-09-05T02:21:56.491Z,16.70
2022-09-05T02:24:33.015Z,16.80
2022-09-05T02:28:03.671Z,16.80
2022-09-05T02:30:21.840Z,16.80
2022-09-05T02:33:17.086Z,16.70
2022-09-05T02:36:04.768Z,16.70
2022-09-05T02:45:01.242Z,16.70
2022-09-05T02:45:11.752Z,16.80
2022-09-05T02:45:14.494Z,16.80
2022-09-05T02:47:52.120Z,16.80
2022-09-05T02:54:05.799Z,16.70
2022-09-05T02:57:29.484Z,16.70
2022-09-05T02:57:43.082Z,16.70
2022-09-05T02:59:35.763Z,16.70
2022-09-05T03:02:26.251Z,16.70
2022-09-05T03:05:08.230Z,16.60
2022-09-05T03:07:51.758Z,16.50
2022-09-05T03:10:53.545Z,16.50
2022-09-05T03:13:54.478Z,16.50
2022-09-05T03:16:59.015Z,16.40
2022-09-05T03:19:46.996Z,16.40
2022-09-05T03:22:37.161Z,16.40
2022-09-05T03:25:10.152Z,16.40
2022-09-05T03:28:13.942Z,16.40
2022-09-05T03:31:22.166Z,16.40
2022-09-05T03:34:19.597Z,16.40
2022-09-05T03:36:59.543Z,16.40
2022-09-05T03:40:15.321Z,16.50
2022-09-05T03:42:53.487Z,16.50
2022-09-05T03:45:43.157Z,16.50
2022-09-05T03:48:41.970Z,16.50
2022-09-05T03:57:11.686Z,16.50
2022-09-05T03:57:15.050Z,16.50
2022-09-05T03:57:33.681Z,16.40
2022-09-05T04:00:10.552Z,16.40
2022-09-05T04:08:05.906Z,16.30
2022-09-05T04:08:15.214Z,16.30
2022-09-05T04:08:43.746Z,16.30
2022-09-05T04:11:17.209Z,16.30
2022-09-05T04:13:53.521Z,16.30
2022-09-05T04:16:44.428Z,16.40
2022-09-05T04:19:28.395Z,16.30
2022-09-05T04:22:06.548Z,16.40
2022-09-05T04:24:54.220Z,16.50
2022-09-05T04:27:51.141Z,16.50
2022-09-05T04:30:38.748Z,16.50
2022-09-05T04:33:19.455Z,16.40
2022-09-05T04:36:26.500Z,16.30
2022-09-05T04:39:19.078Z,16.30
2022-09-05T04:42:04.721Z,16.30
2022-09-05T04:44:55.639Z,16.30
2022-09-05T04:47:41.705Z,16.30
2022-09-05T04:50:16.566Z,16.30
2022-09-05T04:53:26.849Z,16.30
2022-09-05T04:55:58.019Z,16.30
2022-09-05T05:01:01.697Z,16.40
2022-09-05T05:06:01.607Z,16.40
2022-09-05T05:06:18.133Z,16.50
2022-09-05T05:07:20.016Z,16.50
2022-09-05T05:10:52.649Z,16.50
2022-09-05T05:17:57.276Z,16.50
2022-09-05T05:18:08.472Z,16.60
2022-09-05T05:19:03.042Z,16.60
2022-09-05T05:21:33.020Z,16.60
2022-09-05T05:24:22.207Z,16.60
2022-09-05T05:27:08.648Z,16.70
2022-09-05T05:29:43.174Z,16.70
2022-09-05T05:32:24.897Z,16.70
2022-09-05T05:35:21.340Z,16.70
2022-09-05T05:38:08.587Z,16.90
2022-09-05T05:40:51.223Z,17.00
2022-09-05T05:43:25.704Z,17.00
2022-09-05T05:45:58.718Z,17.00
2022-09-05T05:48:40.632Z,17.00
2022-09-05T05:51:41.084Z,17.10
2022-09-05T05:54:32.533Z,17.20
2022-09-05T05:57:01.425Z,17.20
2022-09-05T06:00:00.829Z,17.20
2022-09-05T06:03:25.893Z,17.20
2022-09-05T06:06:07.510Z,17.20
2022-09-05T06:12:01.143Z,17.20
2022-09-05T06:14:59.829Z,17.20
2022-09-05T06:15:27.500Z,17.20
2022-09-05T06:18:31.299Z,17.20
2022-09-05T06:22:07.120Z,17.10
2022-09-05T06:24:37.383Z,17.10
2022-09-05T06:27:34.915Z,17.10
2022-09-05T06:30:20.540Z,17.10
2022-09-05T06:33:16.610Z,17.10
2022-09-05T06:36:04.117Z,17.10
2022-09-05T06:39:00.848Z,17.10
2022-09-05T06:41:55.309Z,17.20
2022-09-05T06:44:51.549Z,17.20
2022-09-05T06:47:23.788Z,17.20
2022-09-05T06:50:26.721Z,17.30
2022-09-05T06:53:32.233Z,17.30
2022-09-05T06:56:11.429Z,17.30
2022-09-05T06:59:20.107Z,17.40
2022-09-05T07:02:08.514Z,17.40
2022-09-05T07:05:36.877Z,17.40
2022-09-05T07:07:50.290Z,17.40
2022-09-05T07:10:39.181Z,17.50
2022-09-05T07:13:16.914Z,17.50
2022-09-05T07:16:01.991Z,17.60
2022-09-05T07:19:03.164Z,17.60
2022-09-05T07:21:44.763Z,17.60
2022-09-05T07:24:40.435Z,17.60
2022-09-05T07:27:09.051Z,17.60
2022-09-05T07:29:53.427Z,17.60
2022-09-05T07:32:29.979Z,17.60
2022-09-05T07:35:01.298Z,17.70
2022-09-05T07:37:41.067Z,17.70
2022-09-05T07:40:26.058Z,17.80
2022-09-05T07:43:19.003Z,17.80
2022-09-05T07:46:14.012Z,17.80
2022-09-05T07:48:47.903Z,17.90
2022-09-05T07:56:49.778Z,17.90
2022-09-05T07:57:01.148Z,18.00
2022-09-05T07:57:30.226Z,18.00
2022-09-05T08:00:26.010Z,18.00
2022-09-05T08:02:55.239Z,18.10
2022-09-05T08:05:34.514Z,18.20
2022-09-05T08:08:05.403Z,18.30
2022-09-05T08:11:22.243Z,18.30
2022-09-05T08:13:29.755Z,18.40
2022-09-05T08:16:04.287Z,18.50
2022-09-05T08:18:49.998Z,18.60
2022-09-05T08:21:44.384Z,18.70
2022-09-05T08:24:23.723Z,18.80
2022-09-05T08:27:03.785Z,18.90
2022-09-05T08:29:39.251Z,19.00
2022-09-05T08:32:13.068Z,19.10
2022-09-05T08:34:45.187Z,19.10
2022-09-05T08:37:21.572Z,19.30
2022-09-05T08:40:10.331Z,19.30
2022-09-05T08:46:36.545Z,19.50
2022-09-05T08:46:43.162Z,19.60
2022-09-05T08:49:37.034Z,19.80
2022-09-05T08:52:23.534Z,19.90
2022-09-05T08:55:14.834Z,20.00
2022-09-05T08:58:06.907Z,20.10
2022-09-05T09:00:55.080Z,20.20
2022-09-05T09:03:53.886Z,20.20
2022-09-05T09:06:36.244Z,20.30
2022-09-05T09:09:18.280Z,20.40
2022-09-05T09:11:53.942Z,20.40
2022-09-05T09:14:32.192Z,20.50
2022-09-05T09:17:08.939Z,20.50
2022-09-05T09:19:57.153Z,20.60
2022-09-05T09:22:49.421Z,20.70
2022-09-05T09:25:30.734Z,20.80
2022-09-05T09:28:49.044Z,20.90
2022-09-05T09:31:29.326Z,20.90
2022-09-05T09:34:26.882Z,21.00
2022-09-05T09:37:09.441Z,21.20
2022-09-05T09:40:08.949Z,21.20
2022-09-05T09:42:38.586Z,21.20
2022-09-05T09:45:32.020Z,21.30
2022-09-05T09:48:10.268Z,21.40
2022-09-05T09:50:58.521Z,21.50
2022-09-05T09:53:47.202Z,21.60
2022-09-05T09:56:44.881Z,21.70
2022-09-05T09:59:54.870Z,21.70
2022-09-05T10:05:04.235Z,21.80
2022-09-05T10:10:45.545Z,21.90
2022-09-05T10:10:48.642Z,21.80
2022-09-05T10:12:06.749Z,22.00
2022-09-05T10:14:49.125Z,22.00
2022-09-05T10:17:28.791Z,22.10
2022-09-05T10:20:21.078Z,22.10
2022-09-05T10:23:18.872Z,22.20
2022-09-05T10:26:01.451Z,22.20
2022-09-05T10:28:46.462Z,22.30
2022-09-05T10:34:39.465Z,22.40
2022-09-05T10:35:14.558Z,22.50
2022-09-05T10:37:13.099Z,22.60
2022-09-05T10:39:44.196Z,22.70
2022-09-05T10:42:20.064Z,22.70
2022-09-05T10:44:55.374Z,22.80
2022-09-05T10:47:37.282Z,22.90
2022-09-05T10:50:09.735Z,22.90
2022-09-05T10:52:59.152Z,22.90
2022-09-05T10:56:21.423Z,23.00
2022-09-05T11:02:21.647Z,23.10
2022-09-05T11:02:33.557Z,23.10
2022-09-05T11:05:23.547Z,23.20
2022-09-05T11:07:53.436Z,23.30
2022-09-05T11:10:36.176Z,23.30
2022-09-05T11:13:19.892Z,23.40
2022-09-05T11:16:13.923Z,23.40
2022-09-05T11:19:08.934Z,23.50
2022-09-05T11:22:04.185Z,23.50
2022-09-05T11:24:48.740Z,23.60
2022-09-05T11:27:48.202Z,23.70
2022-09-05T11:30:28.404Z,23.70
2022-09-05T11:39:46.454Z,23.70
2022-09-05T11:39:56.264Z,23.80
2022-09-05T11:40:31.185Z,23.80
2022-09-05T11:43:00.578Z,23.90
2022-09-05T11:45:57.870Z,23.80
2022-09-05T11:48:44.590Z,23.90
2022-09-05T11:51:28.248Z,24.00
2022-09-05T11:54:51.917Z,24.00
2022-09-05T11:57:42.755Z,24.10
2022-09-05T12:00:33.727Z,24.20
2022-09-05T12:04:00.286Z,24.20
2022-09-05T12:07:29.850Z,24.20
2022-09-05T12:10:47.310Z,24.30
2022-09-05T12:13:40.260Z,24.30
2022-09-05T12:16:36.695Z,24.40
2022-09-05T12:19:22.769Z,24.40
2022-09-05T12:22:10.123Z,24.50
2022-09-05T12:25:16.084Z,24.60
2022-09-05T12:27:47.450Z,24.60
2022-09-05T12:31:09.947Z,24.60
2022-09-05T12:36:08.652Z,24.70
2022-09-05T12:40:05.222Z,24.80
2022-09-05T12:40:57.889Z,24.80
2022-09-05T12:42:51.121Z,24.80
2022-09-05T12:46:18.798Z,24.80
2022-09-05T12:49:11.560Z,24.90
2022-09-05T12:51:53.534Z,25.00
2022-09-05T12:54:33.098Z,25.00
2022-09-05T12:59:22.653Z,25.00
2022-09-05T13:03:01.407Z,25.10
2022-09-05T13:03:29.792Z,25.10
2022-09-05T13:06:25.600Z,25.20
2022-09-05T13:09:22.008Z,25.20
2022-09-05T13:14:49.096Z,25.30
2022-09-05T13:15:19.968Z,25.30
2022-09-05T13:18:01.769Z,25.40
2022-09-05T13:20:37.398Z,25.40
2022-09-05T13:23:52.168Z,25.50
2022-09-05T13:26:25.293Z,25.50
2022-09-05T13:29:08.396Z,25.50
2022-09-05T13:37:59.865Z,25.50
2022-09-05T13:38:11.970Z,25.60
2022-09-05T13:38:12.572Z,25.60
2022-09-05T13:40:26.695Z,25.70
2022-09-05T13:43:31.185Z,25.60
2022-09-05T13:46:12.474Z,25.70
2022-09-05T13:51:43.827Z,25.80
2022-09-05T13:54:34.079Z,25.80
2022-09-05T13:57:31.578Z,25.80
2022-09-05T14:00:27.110Z,25.80
2022-09-05T14:06:31.257Z,25.90
2022-09-05T14:12:19.236Z,25.90
2022-09-05T14:15:28.976Z,26.00
2022-09-05T14:18:22.225Z,26.10
2022-09-05T14:21:18.108Z,26.10
2022-09-05T14:23:58.566Z,26.10
2022-09-05T14:26:30.730Z,26.10
2022-09-05T14:29:14.199Z,26.10
2022-09-05T14:37:46.662Z,26.10
2022-09-05T14:37:55.341Z,26.10
2022-09-05T14:38:04.289Z,26.10
2022-09-05T14:41:10.355Z,26.10
2022-09-05T14:43:43.156Z,26.10
2022-09-05T14:46:23.742Z,26.20
2022-09-05T14:48:56.564Z,26.20
2022-09-05T14:51:36.121Z,26.20
2022-09-05T14:59:40.619Z,26.20
2022-09-05T15:02:42.985Z,26.20
2022-09-05T15:03:02.208Z,26.20
2022-09-05T15:05:30.777Z,26.20
2022-09-05T15:08:36.628Z,26.20
2022-09-05T15:12:17.667Z,26.20
2022-09-05T15:14:03.453Z,26.20
2022-09-05T15:16:38.438Z,26.20
2022-09-05T15:19:08.642Z,26.30
2022-09-05T15:21:38.027Z,26.30
2022-09-05T15:24:17.387Z,26.30
2022-09-05T15:27:04.369Z,26.30
2022-09-05T15:29:34.284Z,26.30
2022-09-05T15:32:22.436Z,26.30
2022-09-05T15:34:50.578Z,26.30
2022-09-05T15:37:40.459Z,26.30
2022-09-05T15:40:21.969Z,26.30
2022-09-05T15:42:55.478Z,26.30
2022-09-05T15:45:47.163Z,26.30
2022-09-05T15:48:26.549Z,26.30
2022-09-05T15:51:17.496Z,26.30
2022-09-05T15:53:44.257Z,26.30
2022-09-05T15:56:10.857Z,26.30
2022-09-05T15:58:54.007Z,26.30
2022-09-05T16:01:59.209Z,26.30
2022-09-05T16:10:27.220Z,26.30
2022-09-05T16:10:38.651Z,26.20
2022-09-05T16:10:48.951Z,26.30
2022-09-05T16:13:14.106Z,26.20
2022-09-05T16:19:25.024Z,26.20
2022-09-05T16:23:13.912Z,26.20
2022-09-05T16:23:23.942Z,26.20
2022-09-05T16:24:58.039Z,26.20
2022-09-05T16:27:21.595Z,26.20
2022-09-05T16:29:50.530Z,26.10
2022-09-05T16:32:27.369Z,26.10
2022-09-05T16:35:02.908Z,26.10
2022-09-05T16:37:40.649Z,26.10
2022-09-05T16:40:17.877Z,26.00
2022-09-05T16:43:21.907Z,26.00
2022-09-05T16:45:54.501Z,25.90
2022-09-05T16:48:33.316Z,25.90
2022-09-05T16:51:16.506Z,25.80
2022-09-05T16:53:59.115Z,25.70
2022-09-05T16:56:47.788Z,25.70
2022-09-05T16:59:30.382Z,25.60
2022-09-05T17:02:08.045Z,25.60
2022-09-05T17:05:03.220Z,25.50
2022-09-05T17:08:04.523Z,25.40
2022-09-05T17:10:57.398Z,25.40
2022-09-05T17:13:49.136Z,25.30
2022-09-05T17:16:31.213Z,25.20
2022-09-05T17:19:01.195Z,25.00
2022-09-05T17:25:11.074Z,24.90
2022-09-05T17:29:17.709Z,24.70
2022-09-05T17:29:25.039Z,24.60
2022-09-05T17:32:52.367Z,24.40
2022-09-05T17:35:28.018Z,24.40
2022-09-05T17:38:11.307Z,24.40
2022-09-05T17:40:51.465Z,24.40
2022-09-05T17:43:33.020Z,24.30
2022-09-05T17:46:28.635Z,24.20
2022-09-05T17:49:17.551Z,24.10
2022-09-05T17:51:51.449Z,24.00
2022-09-05T17:54:33.495Z,23.80
2022-09-05T17:57:27.923Z,23.80
2022-09-05T18:00:21.345Z,23.70
2022-09-05T18:02:56.514Z,23.70
2022-09-05T18:05:56.712Z,23.70
2022-09-05T18:08:45.313Z,23.70
2022-09-05T18:11:44.703Z,23.50
2022-09-05T18:14:24.508Z,23.50
2022-09-05T18:17:36.579Z,23.40
2022-09-05T18:19:44.043Z,23.30
2022-09-05T18:22:36.327Z,23.20
2022-09-05T18:25:28.920Z,23.00
2022-09-05T18:28:22.635Z,23.00
2022-09-05T18:30:49.564Z,22.90
2022-09-05T18:33:56.152Z,22.90
2022-09-05T18:36:25.820Z,22.90
2022-09-05T18:39:23.412Z,22.70
2022-09-05T18:42:26.111Z,22.50
2022-09-05T18:44:59.779Z,22.40
2022-09-05T18:47:32.107Z,22.40
2022-09-05T18:50:26.223Z,22.40
2022-09-05T18:52:51.789Z,22.20
2022-09-05T18:56:13.446Z,22.20
2022-09-05T18:58:52.022Z,22.20
2022-09-05T19:01:31.059Z,22.10
2022-09-05T19:04:02.894Z,22.10
2022-09-05T19:06:36.412Z,22.10
2022-09-05T19:09:14.060Z,22.10
2022-09-05T19:12:33.340Z,22.00
2022-09-05T19:15:06.864Z,22.00
2022-09-05T19:18:25.878Z,22.00
2022-09-05T19:20:55.633Z,21.90
2022-09-05T19:23:29.133Z,21.70
2022-09-05T19:26:09.679Z,21.60
2022-09-05T19:36:52.296Z,21.50
2022-09-05T19:36:52.816Z,21.60
2022-09-05T19:37:03.124Z,21.60
2022-09-05T19:37:47.281Z,21.60
2022-09-05T19:47:25.474Z,21.50
2022-09-05T19:47:36.099Z,21.50
2022-09-05T19:47:49.952Z,21.40
2022-09-05T19:49:07.723Z,21.30
2022-09-05T19:51:35.214Z,21.20
2022-09-05T19:54:04.478Z,21.20
2022-09-05T19:56:46.627Z,21.10
2022-09-05T19:59:34.758Z,21.20
2022-09-05T20:02:02.787Z,21.10
2022-09-05T20:04:35.425Z,21.20
2022-09-05T20:07:14.759Z,21.10
2022-09-05T20:09:47.126Z,21.10
2022-09-05T20:12:30.789Z,21.10
2022-09-05T20:15:17.519Z,21.00
2022-09-05T20:17:45.972Z,20.90
2022-09-05T20:20:17.342Z,20.90
2022-09-05T20:22:50.818Z,20.80
2022-09-05T20:25:43.585Z,20.60
2022-09-05T20:28:16.671Z,20.70
2022-09-05T20:30:47.548Z,20.60
2022-09-05T20:33:26.296Z,20.50
2022-09-05T20:43:11.457Z,20.50
2022-09-05T20:43:30.696Z,20.50
2022-09-05T20:43:42.769Z,20.50
2022-09-05T20:44:37.999Z,20.50
2022-09-05T20:51:46.077Z,20.60
2022-09-05T20:54:13.196Z,20.50
2022-09-05T20:54:18.862Z,20.50
2022-09-05T20:55:42.114Z,20.60
2022-09-05T20:58:14.037Z,20.50
2022-09-05T21:01:21.014Z,20.50
2022-09-05T21:03:38.005Z,20.50
2022-09-05T21:06:23.497Z,20.50
2022-09-05T21:08:52.420Z,20.50
2022-09-05T21:11:29.458Z,20.40
2022-09-05T21:14:00.049Z,20.40
2022-09-05T21:16:30.225Z,20.40
2022-09-05T21:18:57.456Z,20.40
2022-09-05T21:21:28.497Z,20.40
2022-09-05T21:24:17.498Z,20.30
2022-09-05T21:26:47.253Z,20.30
2022-09-05T21:29:17.372Z,20.40
2022-09-05T21:31:45.470Z,20.30
2022-09-05T21:34:20.257Z,20.30
2022-09-05T21:36:50.473Z,20.20
2022-09-05T21:39:35.213Z,20.20
2022-09-05T21:43:40.868Z,20.10
2022-09-05T21:47:38.175Z,20.10
2022-09-05T21:47:52.357Z,20.10
2022-09-05T21:50:31.131Z,20.10
2022-09-05T21:55:09.342Z,20.10
2022-09-05T21:59:26.136Z,20.10
2022-09-05T21:59:27.564Z,20.10
2022-09-05T22:01:44.893Z,20.10
2022-09-05T22:04:17.457Z,20.10
2022-09-05T22:06:48.577Z,20.10
2022-09-05T22:09:19.519Z,20.00
2022-09-05T22:11:50.272Z,20.00
2022-09-05T22:14:21.908Z,20.00
2022-09-05T22:16:50.861Z,19.90
2022-09-05T22:19:37.569Z,19.90
2022-09-05T22:22:15.705Z,19.90
2022-09-05T22:25:04.495Z,19.80
2022-09-05T22:27:33.041Z,19.80
2022-09-05T22:30:01.803Z,19.70
2022-09-05T22:32:35.176Z,19.70
2022-09-05T22:35:27.945Z,19.70
2022-09-05T22:38:10.872Z,19.70
2022-09-05T22:40:39.626Z,19.70
2022-09-05T22:43:08.042Z,19.70
2022-09-05T22:45:36.324Z,19.60
2022-09-05T22:48:11.620Z,19.60
2022-09-05T22:50:39.171Z,19.70
2022-09-05T22:53:07.342Z,19.70
2022-09-05T22:55:35.398Z,19.60
2022-09-05T22:58:02.985Z,19.50
2022-09-05T23:00:29.835Z,19.50
2022-09-05T23:03:00.252Z,19.60
2022-09-05T23:05:27.697Z,19.60
2022-09-05T23:08:01.259Z,19.60
2022-09-05T23:10:29.234Z,19.50
2022-09-05T23:12:56.647Z,19.50
2022-09-05T23:15:23.341Z,19.60
2022-09-05T23:17:54.934Z,19.50
2022-09-05T23:20:21.965Z,19.40
2022-09-05T23:22:48.645Z,19.50
2022-09-05T23:25:15.362Z,19.50
2022-09-05T23:27:42.054Z,19.40
2022-09-05T23:30:09.848Z,19.40
2022-09-05T23:32:36.575Z,19.40
2022-09-05T23:35:03.286Z,19.40
2022-09-05T23:37:29.935Z,19.30
2022-09-05T23:39:56.641Z,19.30
2022-09-05T23:42:23.333Z,19.30
2022-09-05T23:44:49.976Z,19.30
2022-09-05T23:47:16.592Z,19.20
2022-09-05T23:49:43.217Z,19.10
2022-09-05T23:52:09.921Z,19.10
2022-09-05T23:54:36.564Z,19.20
2022-09-05T23:57:03.279Z,19.10
2022-09-05T23:59:30.110Z,19.10
